sensor_id;sensor_type;location;lat;lon;timestamp;P1;durP1;ratioP1;P2;durP2;ratioP2
34489;SDS011;20730;49.372;7.324;2024-02-14T00:00:48;7.03;;;2.00;;
34489;SDS011;20730;49.372;7.324;2024-02-14T00:03:49;6.05;;;2.28;;
34489;SDS011;20730;49.372;7.324;2024-02-14T00:06:27;6.65;;;1.90;;
34489;SDS011;20730;49.372;7.324;2024-02-14T00:09:17;7.25;;;1.77;;
34489;SDS011;20730;49.372;7.324;2024-02-14T00:12:09;8.57;;;1.85;;
34489;SDS011;20730;49.372;7.324;2024-02-14T00:14:47;4.13;;;1.80;;
34489;SDS011;20730;49.372;7.324;2024-02-14T00:17:28;8.10;;;1.73;;
34489;SDS011;20730;49.372;7.324;2024-02-14T00:20:23;5.38;;;1.52;;
34489;SDS011;20730;49.372;7.324;2024-02-14T00:23:08;4.18;;;1.60;;
34489;SDS011;20730;49.372;7.324;2024-02-14T00:25:39;5.47;;;1.50;;
34489;SDS011;20730;49.372;7.324;2024-02-14T00:28:19;3.22;;;1.42;;
34489;SDS011;20730;49.372;7.324;2024-02-14T00:30:58;3.97;;;1.40;;
34489;SDS011;20730;49.372;7.324;2024-02-14T00:33:51;4.78;;;1.60;;
34489;SDS011;20730;49.372;7.324;2024-02-14T00:36:28;5.10;;;1.80;;
34489;SDS011;20730;49.372;7.324;2024-02-14T00:39:04;3.13;;;1.27;;
34489;SDS011;20730;49.372;7.324;2024-02-14T00:42:11;7.15;;;1.88;;
34489;SDS011;20730;49.372;7.324;2024-02-14T00:44:41;4.22;;;1.55;;
34489;SDS011;20730;49.372;7.324;2024-02-14T00:47:48;2.80;;;1.63;;
34489;SDS011;20730;49.372;7.324;2024-02-14T00:50:57;3.70;;;1.80;;
34489;SDS011;20730;49.372;7.324;2024-02-14T00:53:36;5.53;;;1.90;;
34489;SDS011;20730;49.372;7.324;2024-02-14T00:56:23;3.97;;;1.90;;
34489;SDS011;20730;49.372;7.324;2024-02-14T00:59:07;5.28;;;2.20;;
34489;SDS011;20730;49.372;7.324;2024-02-14T01:01:49;4.15;;;1.75;;
34489;SDS011;20730;49.372;7.324;2024-02-14T01:04:44;5.70;;;1.88;;
34489;SDS011;20730;49.372;7.324;2024-02-14T01:07:30;5.05;;;2.00;;
34489;SDS011;20730;49.372;7.324;2024-02-14T01:10:02;6.47;;;2.25;;
34489;SDS011;20730;49.372;7.324;2024-02-14T01:12:43;4.90;;;1.98;;
34489;SDS011;20730;49.372;7.324;2024-02-14T01:15:21;3.85;;;1.90;;
34489;SDS011;20730;49.372;7.324;2024-02-14T01:18:16;10.25;;;2.20;;
34489;SDS011;20730;49.372;7.324;2024-02-14T01:21:03;7.05;;;2.00;;
34489;SDS011;20730;49.372;7.324;2024-02-14T01:23:41;4.90;;;2.13;;
34489;SDS011;20730;49.372;7.324;2024-02-14T01:26:23;4.82;;;2.10;;
34489;SDS011;20730;49.372;7.324;2024-02-14T01:29:02;5.20;;;1.80;;
34489;SDS011;20730;49.372;7.324;2024-02-14T01:31:35;5.75;;;2.33;;
34489;SDS011;20730;49.372;7.324;2024-02-14T01:34:36;4.88;;;1.70;;
34489;SDS011;20730;49.372;7.324;2024-02-14T01:37:21;10.75;;;2.05;;
34489;SDS011;20730;49.372;7.324;2024-02-14T01:40:32;6.60;;;1.98;;
34489;SDS011;20730;49.372;7.324;2024-02-14T01:43:27;6.07;;;2.20;;
34489;SDS011;20730;49.372;7.324;2024-02-14T01:46:16;5.88;;;2.35;;
34489;SDS011;20730;49.372;7.324;2024-02-14T01:48:53;3.47;;;2.10;;
34489;SDS011;20730;49.372;7.324;2024-02-14T01:51:51;4.55;;;2.17;;
34489;SDS011;20730;49.372;7.324;2024-02-14T01:55:00;5.82;;;1.90;;
34489;SDS011;20730;49.372;7.324;2024-02-14T01:57:45;5.18;;;1.95;;
34489;SDS011;20730;49.372;7.324;2024-02-14T02:00:41;4.75;;;2.08;;
34489;SDS011;20730;49.372;7.324;2024-02-14T02:03:25;4.37;;;1.37;;
34489;SDS011;20730;49.372;7.324;2024-02-14T02:06:00;13.30;;;2.20;;
34489;SDS011;20730;49.372;7.324;2024-02-14T02:08:43;4.57;;;2.10;;
34489;SDS011;20730;49.372;7.324;2024-02-14T02:11:48;5.68;;;2.40;;
34489;SDS011;20730;49.372;7.324;2024-02-14T02:15:09;6.63;;;1.83;;
34489;SDS011;20730;49.372;7.324;2024-02-14T02:18:17;3.40;;;1.95;;
34489;SDS011;20730;49.372;7.324;2024-02-14T02:21:32;6.93;;;2.15;;
34489;SDS011;20730;49.372;7.324;2024-02-14T02:24:19;4.65;;;1.98;;
34489;SDS011;20730;49.372;7.324;2024-02-14T02:27:08;6.47;;;1.98;;
34489;SDS011;20730;49.372;7.324;2024-02-14T02:30:08;2.75;;;1.80;;
34489;SDS011;20730;49.372;7.324;2024-02-14T02:33:00;7.80;;;2.38;;
34489;SDS011;20730;49.372;7.324;2024-02-14T02:35:45;4.82;;;2.10;;
34489;SDS011;20730;49.372;7.324;2024-02-14T02:39:05;4.90;;;2.17;;
34489;SDS011;20730;49.372;7.324;2024-02-14T02:42:12;6.13;;;1.98;;
34489;SDS011;20730;49.372;7.324;2024-02-14T02:45:34;4.75;;;2.13;;
34489;SDS011;20730;49.372;7.324;2024-02-14T02:48:37;3.63;;;1.83;;
34489;SDS011;20730;49.372;7.324;2024-02-14T02:51:20;6.25;;;2.30;;
34489;SDS011;20730;49.372;7.324;2024-02-14T02:54:27;6.03;;;2.15;;
34489;SDS011;20730;49.372;7.324;2024-02-14T02:57:40;4.35;;;2.05;;
34489;SDS011;20730;49.372;7.324;2024-02-14T03:00:40;5.05;;;2.00;;
34489;SDS011;20730;49.372;7.324;2024-02-14T03:03:24;5.05;;;2.13;;
34489;SDS011;20730;49.372;7.324;2024-02-14T03:06:32;5.88;;;1.98;;
34489;SDS011;20730;49.372;7.324;2024-02-14T03:09:57;4.32;;;2.25;;
34489;SDS011;20730;49.372;7.324;2024-02-14T03:13:15;12.32;;;2.50;;
34489;SDS011;20730;49.372;7.324;2024-02-14T03:16:09;9.95;;;2.60;;
34489;SDS011;20730;49.372;7.324;2024-02-14T03:18:50;4.90;;;1.75;;
34489;SDS011;20730;49.372;7.324;2024-02-14T03:21:40;6.40;;;1.80;;
34489;SDS011;20730;49.372;7.324;2024-02-14T03:24:22;4.68;;;2.00;;
34489;SDS011;20730;49.372;7.324;2024-02-14T03:27:07;4.47;;;1.98;;
34489;SDS011;20730;49.372;7.324;2024-02-14T03:29:56;7.03;;;2.65;;
34489;SDS011;20730;49.372;7.324;2024-02-14T03:32:50;6.57;;;2.25;;
34489;SDS011;20730;49.372;7.324;2024-02-14T03:35:51;4.72;;;1.90;;
34489;SDS011;20730;49.372;7.324;2024-02-14T03:38:33;7.35;;;2.20;;
34489;SDS011;20730;49.372;7.324;2024-02-14T03:41:21;3.55;;;2.05;;
34489;SDS011;20730;49.372;7.324;2024-02-14T03:43:55;4.88;;;2.15;;
34489;SDS011;20730;49.372;7.324;2024-02-14T03:47:07;9.02;;;2.78;;
34489;SDS011;20730;49.372;7.324;2024-02-14T03:49:48;7.25;;;2.28;;
34489;SDS011;20730;49.372;7.324;2024-02-14T03:52:31;3.95;;;1.75;;
34489;SDS011;20730;49.372;7.324;2024-02-14T03:55:13;5.78;;;2.17;;
34489;SDS011;20730;49.372;7.324;2024-02-14T03:58:00;3.92;;;2.45;;
34489;SDS011;20730;49.372;7.324;2024-02-14T04:01:14;6.80;;;2.20;;
34489;SDS011;20730;49.372;7.324;2024-02-14T04:04:03;5.82;;;2.15;;
34489;SDS011;20730;49.372;7.324;2024-02-14T04:06:34;6.00;;;2.15;;
34489;SDS011;20730;49.372;7.324;2024-02-14T04:09:39;6.60;;;2.35;;
34489;SDS011;20730;49.372;7.324;2024-02-14T04:12:28;8.30;;;2.40;;
34489;SDS011;20730;49.372;7.324;2024-02-14T04:15:12;7.90;;;2.30;;
34489;SDS011;20730;49.372;7.324;2024-02-14T04:18:18;7.93;;;2.50;;
34489;SDS011;20730;49.372;7.324;2024-02-14T04:20:54;6.35;;;2.22;;
34489;SDS011;20730;49.372;7.324;2024-02-14T04:23:53;4.45;;;2.33;;
34489;SDS011;20730;49.372;7.324;2024-02-14T04:26:21;5.50;;;2.33;;
34489;SDS011;20730;49.372;7.324;2024-02-14T04:29:21;5.90;;;2.40;;
34489;SDS011;20730;49.372;7.324;2024-02-14T04:32:12;5.72;;;2.70;;
34489;SDS011;20730;49.372;7.324;2024-02-14T04:34:56;13.38;;;3.50;;
34489;SDS011;20730;49.372;7.324;2024-02-14T04:37:43;9.70;;;2.85;;
34489;SDS011;20730;49.372;7.324;2024-02-14T04:40:38;8.68;;;2.85;;
34489;SDS011;20730;49.372;7.324;2024-02-14T04:43:45;8.95;;;2.53;;
34489;SDS011;20730;49.372;7.324;2024-02-14T04:46:28;6.20;;;2.33;;
34489;SDS011;20730;49.372;7.324;2024-02-14T04:49:14;7.57;;;2.55;;
34489;SDS011;20730;49.372;7.324;2024-02-14T04:52:09;8.20;;;2.90;;
34489;SDS011;20730;49.372;7.324;2024-02-14T04:54:55;4.78;;;2.38;;
34489;SDS011;20730;49.372;7.324;2024-02-14T04:57:55;8.15;;;3.05;;
34489;SDS011;20730;49.372;7.324;2024-02-14T05:00:42;4.25;;;2.67;;
34489;SDS011;20730;49.372;7.324;2024-02-14T05:03:26;8.05;;;3.45;;
34489;SDS011;20730;49.372;7.324;2024-02-14T05:06:36;10.13;;;2.75;;
34489;SDS011;20730;49.372;7.324;2024-02-14T05:09:45;6.18;;;2.97;;
34489;SDS011;20730;49.372;7.324;2024-02-14T05:12:40;9.75;;;3.40;;
34489;SDS011;20730;49.372;7.324;2024-02-14T05:15:42;9.80;;;3.30;;
34489;SDS011;20730;49.372;7.324;2024-02-14T05:18:42;9.02;;;3.63;;
34489;SDS011;20730;49.372;7.324;2024-02-14T05:21:36;8.05;;;3.80;;
34489;SDS011;20730;49.372;7.324;2024-02-14T05:24:38;8.18;;;3.85;;
34489;SDS011;20730;49.372;7.324;2024-02-14T05:27:09;11.68;;;4.32;;
34489;SDS011;20730;49.372;7.324;2024-02-14T05:29:53;8.63;;;3.90;;
34489;SDS011;20730;49.372;7.324;2024-02-14T05:32:42;6.15;;;3.80;;
34489;SDS011;20730;49.372;7.324;2024-02-14T05:35:29;7.72;;;4.00;;
34489;SDS011;20730;49.372;7.324;2024-02-14T05:38:11;8.95;;;4.15;;
34489;SDS011;20730;49.372;7.324;2024-02-14T05:40:41;7.78;;;4.10;;
34489;SDS011;20730;49.372;7.324;2024-02-14T05:44:01;9.82;;;5.10;;
34489;SDS011;20730;49.372;7.324;2024-02-14T05:47:01;10.10;;;4.38;;
34489;SDS011;20730;49.372;7.324;2024-02-14T05:50:13;7.00;;;4.60;;
34489;SDS011;20730;49.372;7.324;2024-02-14T05:52:58;7.70;;;4.30;;
34489;SDS011;20730;49.372;7.324;2024-02-14T05:55:38;8.35;;;4.57;;
34489;SDS011;20730;49.372;7.324;2024-02-14T05:58:42;8.45;;;4.60;;
34489;SDS011;20730;49.372;7.324;2024-02-14T06:01:28;7.65;;;4.63;;
34489;SDS011;20730;49.372;7.324;2024-02-14T06:04:11;6.25;;;4.53;;
34489;SDS011;20730;49.372;7.324;2024-02-14T06:07:00;11.15;;;4.45;;
34489;SDS011;20730;49.372;7.324;2024-02-14T06:09:53;9.93;;;5.40;;
34489;SDS011;20730;49.372;7.324;2024-02-14T06:12:40;6.43;;;4.80;;
34489;SDS011;20730;49.372;7.324;2024-02-14T06:15:31;9.40;;;5.07;;
34489;SDS011;20730;49.372;7.324;2024-02-14T06:18:29;11.32;;;5.03;;
34489;SDS011;20730;49.372;7.324;2024-02-14T06:21:24;10.18;;;4.95;;
34489;SDS011;20730;49.372;7.324;2024-02-14T06:24:39;9.88;;;5.15;;
34489;SDS011;20730;49.372;7.324;2024-02-14T06:27:57;11.43;;;5.13;;
34489;SDS011;20730;49.372;7.324;2024-02-14T06:30:35;8.77;;;4.63;;
34489;SDS011;20730;49.372;7.324;2024-02-14T06:33:14;9.95;;;5.10;;
34489;SDS011;20730;49.372;7.324;2024-02-14T06:35:56;8.30;;;5.18;;
34489;SDS011;20730;49.372;7.324;2024-02-14T06:38:31;7.22;;;5.20;;
34489;SDS011;20730;49.372;7.324;2024-02-14T06:41:28;10.35;;;5.40;;
34489;SDS011;20730;49.372;7.324;2024-02-14T06:44:17;11.32;;;6.03;;
34489;SDS011;20730;49.372;7.324;2024-02-14T06:46:56;7.93;;;5.60;;
34489;SDS011;20730;49.372;7.324;2024-02-14T06:50:08;8.13;;;5.75;;
34489;SDS011;20730;49.372;7.324;2024-02-14T06:53:01;12.50;;;6.18;;
34489;SDS011;20730;49.372;7.324;2024-02-14T06:55:36;14.55;;;7.07;;
34489;SDS011;20730;49.372;7.324;2024-02-14T06:58:43;15.90;;;7.38;;
34489;SDS011;20730;49.372;7.324;2024-02-14T07:04:23;11.93;;;6.28;;
34489;SDS011;20730;49.372;7.324;2024-02-14T07:06:53;11.43;;;6.53;;
34489;SDS011;20730;49.372;7.324;2024-02-14T07:09:33;14.73;;;6.28;;
34489;SDS011;20730;49.372;7.324;2024-02-14T07:12:10;13.48;;;6.35;;
34489;SDS011;20730;49.372;7.324;2024-02-14T07:15:20;11.30;;;6.40;;
34489;SDS011;20730;49.372;7.324;2024-02-14T07:18:17;9.02;;;5.72;;
34489;SDS011;20730;49.372;7.324;2024-02-14T07:21:13;11.90;;;5.78;;
34489;SDS011;20730;49.372;7.324;2024-02-14T07:24:16;16.20;;;6.10;;
34489;SDS011;20730;49.372;7.324;2024-02-14T07:27:01;12.48;;;6.00;;
34489;SDS011;20730;49.372;7.324;2024-02-14T07:29:51;15.02;;;6.18;;
34489;SDS011;20730;49.372;7.324;2024-02-14T07:32:37;11.93;;;6.50;;
34489;SDS011;20730;49.372;7.324;2024-02-14T07:35:30;14.70;;;6.10;;
34489;SDS011;20730;49.372;7.324;2024-02-14T07:38:34;13.13;;;6.28;;
34489;SDS011;20730;49.372;7.324;2024-02-14T07:41:36;10.98;;;5.35;;
34489;SDS011;20730;49.372;7.324;2024-02-14T07:44:52;9.80;;;6.10;;
34489;SDS011;20730;49.372;7.324;2024-02-14T07:47:54;10.30;;;6.07;;
34489;SDS011;20730;49.372;7.324;2024-02-14T07:50:46;9.65;;;5.80;;
34489;SDS011;20730;49.372;7.324;2024-02-14T07:53:21;8.57;;;5.38;;
34489;SDS011;20730;49.372;7.324;2024-02-14T07:56:06;14.07;;;6.05;;
34489;SDS011;20730;49.372;7.324;2024-02-14T07:58:56;8.20;;;5.28;;
34489;SDS011;20730;49.372;7.324;2024-02-14T08:01:32;8.88;;;5.75;;
34489;SDS011;20730;49.372;7.324;2024-02-14T08:04:41;11.00;;;5.65;;
34489;SDS011;20730;49.372;7.324;2024-02-14T08:07:13;9.48;;;6.55;;
34489;SDS011;20730;49.372;7.324;2024-02-14T08:10:01;8.50;;;6.22;;
34489;SDS011;20730;49.372;7.324;2024-02-14T08:16:03;11.38;;;5.95;;
34489;SDS011;20730;49.372;7.324;2024-02-14T08:18:42;12.60;;;6.00;;
34489;SDS011;20730;49.372;7.324;2024-02-14T08:21:39;6.25;;;5.43;;
34489;SDS011;20730;49.372;7.324;2024-02-14T08:24:20;8.98;;;5.90;;
34489;SDS011;20730;49.372;7.324;2024-02-14T08:27:13;11.75;;;5.95;;
34489;SDS011;20730;49.372;7.324;2024-02-14T08:29:59;10.95;;;6.10;;
34489;SDS011;20730;49.372;7.324;2024-02-14T08:32:42;10.70;;;5.75;;
34489;SDS011;20730;49.372;7.324;2024-02-14T08:35:23;8.80;;;5.35;;
34489;SDS011;20730;49.372;7.324;2024-02-14T08:38:13;7.78;;;5.50;;
34489;SDS011;20730;49.372;7.324;2024-02-14T08:40:50;11.77;;;5.30;;
34489;SDS011;20730;49.372;7.324;2024-02-14T08:43:24;10.43;;;5.10;;
34489;SDS011;20730;49.372;7.324;2024-02-14T08:46:12;12.23;;;5.57;;
34489;SDS011;20730;49.372;7.324;2024-02-14T08:49:02;12.57;;;5.45;;
34489;SDS011;20730;49.372;7.324;2024-02-14T08:51:57;9.30;;;5.55;;
34489;SDS011;20730;49.372;7.324;2024-02-14T08:54:28;10.98;;;5.35;;
34489;SDS011;20730;49.372;7.324;2024-02-14T08:57:21;10.57;;;6.43;;
34489;SDS011;20730;49.372;7.324;2024-02-14T09:00:05;9.98;;;6.07;;
34489;SDS011;20730;49.372;7.324;2024-02-14T09:03:04;12.35;;;6.80;;
34489;SDS011;20730;49.372;7.324;2024-02-14T09:06:01;12.27;;;6.38;;
34489;SDS011;20730;49.372;7.324;2024-02-14T09:09:08;9.30;;;6.78;;
34489;SDS011;20730;49.372;7.324;2024-02-14T09:11:40;10.48;;;6.32;;
34489;SDS011;20730;49.372;7.324;2024-02-14T09:14:26;9.88;;;6.68;;
34489;SDS011;20730;49.372;7.324;2024-02-14T09:17:35;11.02;;;6.78;;
34489;SDS011;20730;49.372;7.324;2024-02-14T09:20:12;11.63;;;7.00;;
34489;SDS011;20730;49.372;7.324;2024-02-14T09:23:27;10.73;;;7.03;;
34489;SDS011;20730;49.372;7.324;2024-02-14T09:26:12;11.45;;;6.90;;
34489;SDS011;20730;49.372;7.324;2024-02-14T09:28:59;13.13;;;7.57;;
34489;SDS011;20730;49.372;7.324;2024-02-14T09:31:57;11.80;;;7.25;;
34489;SDS011;20730;49.372;7.324;2024-02-14T09:34:53;13.63;;;7.65;;
34489;SDS011;20730;49.372;7.324;2024-02-14T09:38:00;11.60;;;6.05;;
34489;SDS011;20730;49.372;7.324;2024-02-14T09:44:14;6.53;;;5.72;;
34489;SDS011;20730;49.372;7.324;2024-02-14T09:47:11;11.65;;;6.28;;
34489;SDS011;20730;49.372;7.324;2024-02-14T09:50:06;9.27;;;6.50;;
34489;SDS011;20730;49.372;7.324;2024-02-14T09:53:13;14.25;;;7.03;;
34489;SDS011;20730;49.372;7.324;2024-02-14T09:55:51;10.75;;;7.50;;
34489;SDS011;20730;49.372;7.324;2024-02-14T09:58:30;14.85;;;7.53;;
34489;SDS011;20730;49.372;7.324;2024-02-14T10:01:08;10.45;;;7.93;;
34489;SDS011;20730;49.372;7.324;2024-02-14T10:03:44;12.13;;;8.23;;
34489;SDS011;20730;49.372;7.324;2024-02-14T10:06:29;16.33;;;8.90;;
34489;SDS011;20730;49.372;7.324;2024-02-14T10:09:21;12.02;;;8.23;;
34489;SDS011;20730;49.372;7.324;2024-02-14T10:12:10;14.98;;;9.10;;
34489;SDS011;20730;49.372;7.324;2024-02-14T10:14:53;12.65;;;9.10;;
34489;SDS011;20730;49.372;7.324;2024-02-14T10:17:52;15.05;;;9.48;;
34489;SDS011;20730;49.372;7.324;2024-02-14T10:20:24;13.43;;;9.48;;
34489;SDS011;20730;49.372;7.324;2024-02-14T10:23:18;17.52;;;10.57;;
34489;SDS011;20730;49.372;7.324;2024-02-14T10:26:29;13.23;;;9.18;;
34489;SDS011;20730;49.372;7.324;2024-02-14T10:29:15;12.35;;;9.10;;
34489;SDS011;20730;49.372;7.324;2024-02-14T10:32:04;15.48;;;10.80;;
34489;SDS011;20730;49.372;7.324;2024-02-14T10:34:58;13.10;;;8.93;;
34489;SDS011;20730;49.372;7.324;2024-02-14T10:37:47;14.43;;;9.93;;
34489;SDS011;20730;49.372;7.324;2024-02-14T10:40:50;12.35;;;9.32;;
34489;SDS011;20730;49.372;7.324;2024-02-14T10:43:54;13.18;;;9.50;;
34489;SDS011;20730;49.372;7.324;2024-02-14T10:47:06;15.10;;;10.07;;
34489;SDS011;20730;49.372;7.324;2024-02-14T10:50:00;19.15;;;9.82;;
34489;SDS011;20730;49.372;7.324;2024-02-14T10:52:51;13.20;;;9.75;;
34489;SDS011;20730;49.372;7.324;2024-02-14T10:55:27;17.90;;;10.07;;
34489;SDS011;20730;49.372;7.324;2024-02-14T10:58:12;12.15;;;9.32;;
34489;SDS011;20730;49.372;7.324;2024-02-14T11:00:46;15.95;;;8.55;;
34489;SDS011;20730;49.372;7.324;2024-02-14T11:03:50;15.23;;;8.75;;
34489;SDS011;20730;49.372;7.324;2024-02-14T11:06:27;14.82;;;8.70;;
34489;SDS011;20730;49.372;7.324;2024-02-14T11:09:15;13.73;;;8.45;;
34489;SDS011;20730;49.372;7.324;2024-02-14T11:11:58;13.35;;;9.20;;
34489;SDS011;20730;49.372;7.324;2024-02-14T11:14:56;14.82;;;9.13;;
34489;SDS011;20730;49.372;7.324;2024-02-14T11:17:49;11.63;;;8.88;;
34489;SDS011;20730;49.372;7.324;2024-02-14T11:20:37;14.38;;;9.80;;
34489;SDS011;20730;49.372;7.324;2024-02-14T11:23:11;12.48;;;10.25;;
34489;SDS011;20730;49.372;7.324;2024-02-14T11:25:58;12.90;;;9.80;;
34489;SDS011;20730;49.372;7.324;2024-02-14T11:28:32;13.07;;;9.77;;
34489;SDS011;20730;49.372;7.324;2024-02-14T11:31:37;12.40;;;9.25;;
34489;SDS011;20730;49.372;7.324;2024-02-14T11:34:13;15.35;;;9.48;;
34489;SDS011;20730;49.372;7.324;2024-02-14T11:37:12;15.32;;;9.32;;
34489;SDS011;20730;49.372;7.324;2024-02-14T11:40:28;12.85;;;9.20;;
34489;SDS011;20730;49.372;7.324;2024-02-14T11:43:25;14.93;;;9.02;;
34489;SDS011;20730;49.372;7.324;2024-02-14T11:46:12;13.40;;;9.43;;
34489;SDS011;20730;49.372;7.324;2024-02-14T11:48:56;14.88;;;8.43;;
34489;SDS011;20730;49.372;7.324;2024-02-14T11:51:33;11.23;;;8.38;;
34489;SDS011;20730;49.372;7.324;2024-02-14T11:54:08;12.43;;;9.32;;
34489;SDS011;20730;49.372;7.324;2024-02-14T11:56:43;12.88;;;9.40;;
34489;SDS011;20730;49.372;7.324;2024-02-14T11:59:20;13.13;;;9.10;;
34489;SDS011;20730;49.372;7.324;2024-02-14T12:02:01;12.82;;;8.60;;
34489;SDS011;20730;49.372;7.324;2024-02-14T12:04:47;13.13;;;8.63;;
34489;SDS011;20730;49.372;7.324;2024-02-14T12:07:32;11.70;;;7.90;;
34489;SDS011;20730;49.372;7.324;2024-02-14T12:10:07;11.05;;;7.50;;
34489;SDS011;20730;49.372;7.324;2024-02-14T12:12:45;8.85;;;6.82;;
34489;SDS011;20730;49.372;7.324;2024-02-14T12:15:38;14.27;;;6.90;;
34489;SDS011;20730;49.372;7.324;2024-02-14T12:18:32;10.38;;;7.00;;
34489;SDS011;20730;49.372;7.324;2024-02-14T12:21:27;11.77;;;6.63;;
34489;SDS011;20730;49.372;7.324;2024-02-14T12:23:59;8.90;;;5.80;;
34489;SDS011;20730;49.372;7.324;2024-02-14T12:26:47;10.47;;;5.70;;
34489;SDS011;20730;49.372;7.324;2024-02-14T12:29:28;6.75;;;4.75;;
34489;SDS011;20730;49.372;7.324;2024-02-14T12:32:05;8.20;;;4.93;;
34489;SDS011;20730;49.372;7.324;2024-02-14T12:35:08;6.72;;;4.20;;
34489;SDS011;20730;49.372;7.324;2024-02-14T12:37:41;7.38;;;3.97;;
34489;SDS011;20730;49.372;7.324;2024-02-14T12:40:23;4.45;;;3.35;;
34489;SDS011;20730;49.372;7.324;2024-02-14T12:43:09;3.92;;;3.10;;
34489;SDS011;20730;49.372;7.324;2024-02-14T12:45:47;3.58;;;3.08;;
34489;SDS011;20730;49.372;7.324;2024-02-14T12:48:31;4.20;;;3.40;;
34489;SDS011;20730;49.372;7.324;2024-02-14T12:51:13;4.05;;;2.90;;
34489;SDS011;20730;49.372;7.324;2024-02-14T12:53:52;4.78;;;3.20;;
34489;SDS011;20730;49.372;7.324;2024-02-14T12:56:46;5.00;;;2.80;;
34489;SDS011;20730;49.372;7.324;2024-02-14T12:59:27;4.70;;;3.10;;
34489;SDS011;20730;49.372;7.324;2024-02-14T13:02:34;5.32;;;2.53;;
34489;SDS011;20730;49.372;7.324;2024-02-14T13:05:27;2.63;;;2.42;;
34489;SDS011;20730;49.372;7.324;2024-02-14T13:08:20;3.10;;;2.75;;
34489;SDS011;20730;49.372;7.324;2024-02-14T13:10:54;4.15;;;3.03;;
34489;SDS011;20730;49.372;7.324;2024-02-14T13:13:37;3.22;;;2.92;;
34489;SDS011;20730;49.372;7.324;2024-02-14T13:16:38;4.75;;;3.40;;
34489;SDS011;20730;49.372;7.324;2024-02-14T13:19:30;4.50;;;3.47;;
34489;SDS011;20730;49.372;7.324;2024-02-14T13:22:36;4.43;;;3.20;;
34489;SDS011;20730;49.372;7.324;2024-02-14T13:25:19;4.88;;;3.63;;
34489;SDS011;20730;49.372;7.324;2024-02-14T13:27:56;5.15;;;4.20;;
34489;SDS011;20730;49.372;7.324;2024-02-14T13:30:30;5.75;;;4.40;;
34489;SDS011;20730;49.372;7.324;2024-02-14T13:33:05;5.20;;;4.53;;
34489;SDS011;20730;49.372;7.324;2024-02-14T13:35:55;5.28;;;4.78;;
34489;SDS011;20730;49.372;7.324;2024-02-14T13:38:24;8.02;;;5.20;;
34489;SDS011;20730;49.372;7.324;2024-02-14T13:40:56;5.95;;;5.00;;
34489;SDS011;20730;49.372;7.324;2024-02-14T13:43:35;6.93;;;5.05;;
34489;SDS011;20730;49.372;7.324;2024-02-14T13:46:36;5.93;;;5.22;;
34489;SDS011;20730;49.372;7.324;2024-02-14T13:49:18;6.07;;;4.78;;
34489;SDS011;20730;49.372;7.324;2024-02-14T13:52:01;7.10;;;4.78;;
34489;SDS011;20730;49.372;7.324;2024-02-14T13:54:36;5.13;;;4.63;;
34489;SDS011;20730;49.372;7.324;2024-02-14T13:57:11;5.45;;;4.75;;
34489;SDS011;20730;49.372;7.324;2024-02-14T13:59:50;6.68;;;5.68;;
34489;SDS011;20730;49.372;7.324;2024-02-14T14:02:38;6.25;;;4.80;;
34489;SDS011;20730;49.372;7.324;2024-02-14T14:05:11;6.30;;;5.57;;
34489;SDS011;20730;49.372;7.324;2024-02-14T14:07:47;7.32;;;6.50;;
34489;SDS011;20730;49.372;7.324;2024-02-14T14:10:29;10.23;;;6.18;;
34489;SDS011;20730;49.372;7.324;2024-02-14T14:13:02;7.00;;;6.18;;
34489;SDS011;20730;49.372;7.324;2024-02-14T14:15:55;10.57;;;6.93;;
34489;SDS011;20730;49.372;7.324;2024-02-14T14:18:39;9.07;;;6.65;;
34489;SDS011;20730;49.372;7.324;2024-02-14T14:21:10;8.00;;;6.50;;
34489;SDS011;20730;49.372;7.324;2024-02-14T14:23:48;10.30;;;6.88;;
34489;SDS011;20730;49.372;7.324;2024-02-14T14:26:31;8.75;;;6.53;;
34489;SDS011;20730;49.372;7.324;2024-02-14T14:29:05;10.98;;;6.28;;
34489;SDS011;20730;49.372;7.324;2024-02-14T14:31:49;7.80;;;5.82;;
34489;SDS011;20730;49.372;7.324;2024-02-14T14:34:34;8.48;;;6.78;;
34489;SDS011;20730;49.372;7.324;2024-02-14T14:37:25;9.05;;;7.82;;
34489;SDS011;20730;49.372;7.324;2024-02-14T14:40:08;9.63;;;8.65;;
34489;SDS011;20730;49.372;7.324;2024-02-14T14:42:47;9.05;;;7.90;;
34489;SDS011;20730;49.372;7.324;2024-02-14T14:45:27;12.30;;;8.73;;
34489;SDS011;20730;49.372;7.324;2024-02-14T14:48:13;6.68;;;5.95;;
34489;SDS011;20730;49.372;7.324;2024-02-14T14:50:43;8.20;;;5.63;;
34489;SDS011;20730;49.372;7.324;2024-02-14T14:53:32;6.83;;;5.20;;
34489;SDS011;20730;49.372;7.324;2024-02-14T14:56:30;5.82;;;5.22;;
34489;SDS011;20730;49.372;7.324;2024-02-14T15:01:59;6.00;;;5.13;;
34489;SDS011;20730;49.372;7.324;2024-02-14T15:04:31;5.70;;;5.10;;
34489;SDS011;20730;49.372;7.324;2024-02-14T15:07:10;5.85;;;5.15;;
34489;SDS011;20730;49.372;7.324;2024-02-14T15:09:52;9.75;;;5.85;;
34489;SDS011;20730;49.372;7.324;2024-02-14T15:12:27;6.35;;;5.75;;
34489;SDS011;20730;49.372;7.324;2024-02-14T15:15:03;6.93;;;5.60;;
34489;SDS011;20730;49.372;7.324;2024-02-14T15:17:54;5.55;;;4.85;;
34489;SDS011;20730;49.372;7.324;2024-02-14T15:20:25;6.28;;;4.75;;
34489;SDS011;20730;49.372;7.324;2024-02-14T15:22:59;5.85;;;4.30;;
34489;SDS011;20730;49.372;7.324;2024-02-14T15:25:33;5.38;;;4.57;;
34489;SDS011;20730;49.372;7.324;2024-02-14T15:28:15;5.18;;;4.68;;
34489;SDS011;20730;49.372;7.324;2024-02-14T15:31:07;4.72;;;4.30;;
34489;SDS011;20730;49.372;7.324;2024-02-14T15:34:02;5.60;;;4.35;;
34489;SDS011;20730;49.372;7.324;2024-02-14T15:39:16;6.40;;;4.28;;
34489;SDS011;20730;49.372;7.324;2024-02-14T15:41:51;6.00;;;5.40;;
34489;SDS011;20730;49.372;7.324;2024-02-14T15:44:23;5.43;;;4.88;;
34489;SDS011;20730;49.372;7.324;2024-02-14T15:46:57;8.02;;;5.15;;
34489;SDS011;20730;49.372;7.324;2024-02-14T15:49:43;6.55;;;5.03;;
34489;SDS011;20730;49.372;7.324;2024-02-14T15:52:43;5.78;;;4.57;;
34489;SDS011;20730;49.372;7.324;2024-02-14T15:55:47;5.03;;;4.53;;
34489;SDS011;20730;49.372;7.324;2024-02-14T15:58:21;6.55;;;5.35;;
34489;SDS011;20730;49.372;7.324;2024-02-14T16:00:52;5.97;;;5.38;;
34489;SDS011;20730;49.372;7.324;2024-02-14T16:03:30;5.85;;;5.25;;
34489;SDS011;20730;49.372;7.324;2024-02-14T16:06:13;5.53;;;4.97;;
34489;SDS011;20730;49.372;7.324;2024-02-14T16:08:46;5.85;;;5.35;;
34489;SDS011;20730;49.372;7.324;2024-02-14T16:11:41;6.72;;;4.88;;
34489;SDS011;20730;49.372;7.324;2024-02-14T16:14:19;6.45;;;5.65;;
34489;SDS011;20730;49.372;7.324;2024-02-14T16:16:55;5.78;;;5.25;;
34489;SDS011;20730;49.372;7.324;2024-02-14T16:19:51;6.60;;;4.82;;
34489;SDS011;20730;49.372;7.324;2024-02-14T16:22:29;7.28;;;5.07;;
34489;SDS011;20730;49.372;7.324;2024-02-14T16:25:11;6.40;;;5.70;;
34489;SDS011;20730;49.372;7.324;2024-02-14T16:27:50;6.07;;;5.47;;
34489;SDS011;20730;49.372;7.324;2024-02-14T16:30:28;5.63;;;5.13;;
34489;SDS011;20730;49.372;7.324;2024-02-14T16:33:10;6.00;;;4.80;;
34489;SDS011;20730;49.372;7.324;2024-02-14T16:36:02;5.35;;;4.85;;
34489;SDS011;20730;49.372;7.324;2024-02-14T16:38:49;6.88;;;5.30;;
34489;SDS011;20730;49.372;7.324;2024-02-14T16:41:34;5.88;;;5.05;;
34489;SDS011;20730;49.372;7.324;2024-02-14T16:44:10;6.13;;;5.50;;
34489;SDS011;20730;49.372;7.324;2024-02-14T16:49:18;19.85;;;11.48;;
34489;SDS011;20730;49.372;7.324;2024-02-14T16:51:53;13.88;;;9.57;;
34489;SDS011;20730;49.372;7.324;2024-02-14T16:54:22;6.93;;;6.22;;
34489;SDS011;20730;49.372;7.324;2024-02-14T16:57:04;11.07;;;7.60;;
34489;SDS011;20730;49.372;7.324;2024-02-14T17:00:00;7.03;;;6.32;;
34489;SDS011;20730;49.372;7.324;2024-02-14T17:02:34;8.70;;;6.72;;
34489;SDS011;20730;49.372;7.324;2024-02-14T17:05:24;6.82;;;6.10;;